• Join FlightAware (Why Join?)
  • Login
  • US Flag 
08:44AM EDT


 

Airport Tracker/Info


-or-


 

Live Flight TrackerFlight Track Log ✈ DAL6044 ✈ 25-Apr-2013 ✈ KLGA - KCLE

Flight Track Log - Related Links

Times and Time Zones

All times are in EDT time to prevent confusion due to time zone crossing. See the DAL6044 flight status page for this flight to view local times or setup timezone preferences in your user account.

Time Position Orientation Groundspeed Altitude Reporting Facility
EDT Latitude Longitude Course Direction KTS MPH feet Rate Location/Type
06:34PM 40.7667 -73.8000 270° West 210 242 2,500  Level New York TRACON
06:35PM 40.8167 -73.7500 37° Northeast 236 272 5,500 2,640 Climbing New York TRACON
06:36PM 40.8667 -73.7833 333° Northwest 248 285 7,800 2,520 Climbing New York TRACON
06:37PM 40.8249 -74.3065 277° West  Level FlightAware Approximate
06:37PM 40.9167 -73.8500 315° West 257 296 10,600  Level New York TRACON
06:38PM 40.8348 -74.4202 275° West  Level FlightAware Approximate
06:38PM 40.9000 -73.9500 258° West 277 319 12,400  Level New York TRACON
06:39PM 40.8430 -74.5340 275° West  Level FlightAware Approximate
06:40PM 40.8500 -74.6480 270° West  Level FlightAware Approximate
06:41PM 40.8956 -74.1861 269° West 328 377 15,000  Level New York Center
06:41PM 40.9000 -74.3000 273° West 353 406 16,000 1,080 Climbing New York TRACON
06:42PM 40.9000 -74.4333 270° West 345 397 17,100 420 Climbing New York TRACON
06:44PM 40.9050 -74.5597 273° West 367 422 17,000 -60 Descending New York Center
06:45PM 40.9089 -74.6972 272° West 367 422 17,000  Level New York Center
06:46PM 40.9111 -74.8183 271° West 367 422 17,000 360 Level New York Center
06:47PM 40.9128 -74.9475 271° West 362 417 17,800 1,320 Climbing New York Center
06:48PM 40.9167 -75.0686 272° West 353 406 19,600 1,860 Climbing New York Center
06:49PM 40.9122 -75.1917 267° West 346 398 21,500 1,860 Climbing New York Center
06:50PM 40.8850 -75.3053 252° West 334 384 23,400 1,680 Climbing New York Center
06:51PM 40.8639 -75.4192 256° West 329 379 24,900 1,440 Climbing New York Center
06:52PM 40.8364 -75.5325 252° West 329 379 26,400 1,500 Climbing New York Center
06:53PM 40.8089 -75.6458 252° West 329 379 27,900 1,500 Climbing New York Center
06:54PM 40.7814 -75.7533 251° West 329 379 29,400 1,440 Climbing New York Center
06:55PM 40.7558 -75.8639 253° West 319 367 30,900 1,320 Climbing New York Center
06:56PM 40.7283 -75.9742 252° West 319 367 32,200 1,200 Climbing New York Center
06:57PM 40.7022 -76.0897 253° West 319 367 33,300 900 Climbing New York Center
06:58PM 40.6717 -76.2133 252° West 324 373 34,000 300 Climbing New York Center
06:59PM 40.6781 -76.3453 274° West 340 391 34,000  Level New York Center
07:00PM 40.6986 -76.4811 281° West 359 413 34,000  Level New York Center
07:01PM 40.7211 -76.6172 282° West 372 428 34,000  Level New York Center
07:02PM 40.7394 -76.7528 280° West 372 428 34,000  Level New York Center
07:03PM 40.7594 -76.8889 281° West 377 434 34,000  Level New York Center
07:04PM 40.7814 -77.0308 282° West 377 434 34,000  Level New York Center
07:05PM 40.7989 -77.1667 280° West 377 434 34,000  Level New York Center
07:06PM 40.8208 -77.3031 282° West 377 434 34,000  Level New York Center
07:07PM 40.8517 -77.5250 280° West 378 435 34,000  Level Cleveland Center
07:08PM 40.8700 -77.6614 280° West 383 441 34,000  Level Cleveland Center
07:09PM 40.8881 -77.7981 280° West 383 441 34,000  Level Cleveland Center
07:10PM 40.9081 -77.9372 281° West 388 447 34,000  Level Cleveland Center
07:11PM 40.9300 -78.0794 282° West 388 447 34,000  Level Cleveland Center
07:12PM 40.9517 -78.2161 282° West 388 447 34,000  Level Cleveland Center
07:13PM 40.9750 -78.3444 284° West 393 452 34,000  Level Cleveland Center
07:14PM 40.9983 -78.4811 283° West 398 458 34,000  Level Cleveland Center
07:15PM 41.0217 -78.6208 283° West 393 452 34,000  Level Cleveland Center
07:16PM 41.0428 -78.7606 281° West 388 447 34,000 -600 Level Cleveland Center
07:17PM 41.0658 -78.9031 282° West 394 453 32,800 -1,020 Descending Cleveland Center
07:18PM 41.0867 -79.0378 282° West 389 448 32,000 -420 Descending Cleveland Center
07:19PM 41.1069 -79.1722 281° West 389 448 32,000  Level Cleveland Center
07:20PM 41.1294 -79.3067 283° West 384 442 32,000  Level Cleveland Center
07:21PM 41.1497 -79.4389 282° West 379 436 32,000 -60 Level Cleveland Center
07:22PM 41.1697 -79.5736 281° West 379 436 31,900 -960 Descending Cleveland Center
07:23PM 41.1894 -79.7139 281° West 379 436 30,100 -2,100 Descending Cleveland Center
07:24PM 41.2136 -79.8656 282° West 379 436 27,800 -1,980 Descending Cleveland Center
07:25PM 41.2289 -79.9731 281° West 379 436 26,200 -1,800 Descending Cleveland Center
07:26PM 41.2525 -80.1192 282° West 379 436 24,300 -1,920 Descending Cleveland Center
07:27PM 41.2736 -80.2708 281° West 379 436 22,400 -2,100 Descending Cleveland Center
07:28PM 41.2928 -80.4061 281° West 379 436 20,100 -2,280 Descending Cleveland Center
07:29PM 41.3117 -80.5333 281° West 361 415 17,900 -2,400 Descending Cleveland Center
07:30PM 41.3261 -80.6439 280° West 323 372 15,400 -1,920 Descending Cleveland Center
07:31PM 41.3450 -80.7186 289° West 266 306 14,400 -2,100 Descending Cleveland Center
07:32PM 41.3803 -80.8156 296° West 262 302 11,200 -2,760 Descending Cleveland Center
07:32PM 41.3928 -80.8406 304° West 273 314 10,500 -1,200 Descending Cleveland Center
07:33PM 41.4217 -80.9153 297° West 276 318 10,000 -300 Descending Cleveland Center
07:34PM 41.4444 -81.0042 289° West 254 292 10,000  Level Cleveland Center
07:35PM 41.4586 -81.0819 284° West 254 292 10,000  Level Cleveland Center
07:36PM 41.4769 -81.1761 285° West 250 288 10,000 -840 Level Cleveland Center
07:37PM 41.4911 -81.2567 283° West 243 280 8,400 -1,740 Descending Cleveland Center
07:38PM 41.5050 -81.3400 283° West 232 267 6,600 -1,740 Descending Cleveland Center
07:39PM 41.5192 -81.4206 283° West 227 261 5,000 -840 Descending Cleveland Center
07:40PM 41.5289 -81.5094 278° West 227 261 5,000 -360 Level Cleveland Center
07:41PM 41.5178 -81.5869 259° West 216 249 4,400 -720 Descending Cleveland Center
07:42PM 41.5128 -81.6675 265° West 143 165 3,400 -720 Descending Cleveland Center
07:43PM 41.5042 -81.7061 253° West 162 186 3,000 -600 Descending Cleveland Center